sensor_id;sensor_type;location;lat;lon;timestamp;pressure;altitude;pressure_sealevel;temperature;humidity
39223;BME280;24936;46.328;11.026;2023-04-06T00:00:25;94390.31;;;0.82;64.18
39223;BME280;24936;46.328;11.026;2023-04-06T00:02:51;94390.72;;;0.74;64.95
39223;BME280;24936;46.328;11.026;2023-04-06T00:05:18;94391.28;;;0.64;65.38
39223;BME280;24936;46.328;11.026;2023-04-06T00:07:44;94391.03;;;0.52;65.83
39223;BME280;24936;46.328;11.026;2023-04-06T00:10:09;94396.78;;;0.41;66.15
39223;BME280;24936;46.328;11.026;2023-04-06T00:12:35;94387.16;;;0.27;67.03
39223;BME280;24936;46.328;11.026;2023-04-06T00:15:00;94392.47;;;0.24;67.21
39223;BME280;24936;46.328;11.026;2023-04-06T00:17:27;94382.00;;;0.43;66.28
39223;BME280;24936;46.328;11.026;2023-04-06T00:19:52;94383.50;;;0.48;65.90
39223;BME280;24936;46.328;11.026;2023-04-06T00:22:18;94387.81;;;0.31;66.09
39223;BME280;24936;46.328;11.026;2023-04-06T00:24:43;94381.22;;;0.08;67.91
39223;BME280;24936;46.328;11.026;2023-04-06T00:27:08;94386.16;;;-0.21;69.97
39223;BME280;24936;46.328;11.026;2023-04-06T00:29:34;94374.56;;;-0.32;69.77
39223;BME280;24936;46.328;11.026;2023-04-06T00:31:59;94382.91;;;0.09;67.55
39223;BME280;24936;46.328;11.026;2023-04-06T00:34:25;94375.59;;;0.17;67.01
39223;BME280;24936;46.328;11.026;2023-04-06T00:36:50;94381.34;;;-0.11;68.84
39223;BME280;24936;46.328;11.026;2023-04-06T00:39:16;94387.78;;;-0.03;68.36
39223;BME280;24936;46.328;11.026;2023-04-06T00:41:45;94381.09;;;-0.07;67.94
39223;BME280;24936;46.328;11.026;2023-04-06T00:44:11;94385.09;;;0.17;66.82
39223;BME280;24936;46.328;11.026;2023-04-06T00:46:37;94374.94;;;0.13;66.85
39223;BME280;24936;46.328;11.026;2023-04-06T00:49:02;94373.41;;;0.09;67.18
39223;BME280;24936;46.328;11.026;2023-04-06T00:51:27;94376.69;;;-0.05;68.40
39223;BME280;24936;46.328;11.026;2023-04-06T00:53:53;94372.66;;;-0.10;68.26
39223;BME280;24936;46.328;11.026;2023-04-06T00:56:19;94375.88;;;-0.23;69.42
39223;BME280;24936;46.328;11.026;2023-04-06T00:58:46;94380.66;;;-0.33;68.85
39223;BME280;24936;46.328;11.026;2023-04-06T01:01:11;94381.34;;;-0.47;69.79
39223;BME280;24936;46.328;11.026;2023-04-06T01:03:37;94379.38;;;-0.59;70.19
39223;BME280;24936;46.328;11.026;2023-04-06T01:06:02;94376.06;;;-0.63;70.68
39223;BME280;24936;46.328;11.026;2023-04-06T01:08:28;94373.34;;;-0.59;70.23
39223;BME280;24936;46.328;11.026;2023-04-06T01:10:54;94381.88;;;-0.40;69.36
39223;BME280;24936;46.328;11.026;2023-04-06T01:13:19;94375.78;;;-0.56;69.51
39223;BME280;24936;46.328;11.026;2023-04-06T01:15:45;94380.16;;;-0.76;70.17
39223;BME280;24936;46.328;11.026;2023-04-06T01:18:11;94383.56;;;-0.93;71.30
39223;BME280;24936;46.328;11.026;2023-04-06T01:20:36;94384.06;;;-1.04;71.46
39223;BME280;24936;46.328;11.026;2023-04-06T01:23:02;94377.44;;;-1.10;72.08
39223;BME280;24936;46.328;11.026;2023-04-06T01:25:27;94388.28;;;-1.20;72.23
39223;BME280;24936;46.328;11.026;2023-04-06T01:27:53;94385.56;;;-1.36;72.56
39223;BME280;24936;46.328;11.026;2023-04-06T01:30:18;94384.38;;;-1.48;73.34
39223;BME280;24936;46.328;11.026;2023-04-06T01:32:44;94389.34;;;-1.44;73.33
39223;BME280;24936;46.328;11.026;2023-04-06T01:35:10;94379.56;;;-1.37;73.13
39223;BME280;24936;46.328;11.026;2023-04-06T01:37:36;94397.97;;;-1.26;72.06
39223;BME280;24936;46.328;11.026;2023-04-06T01:40:02;94385.53;;;-1.17;71.86
39223;BME280;24936;46.328;11.026;2023-04-06T01:42:28;94391.13;;;-1.27;72.06
39223;BME280;24936;46.328;11.026;2023-04-06T01:44:53;94387.09;;;-1.32;72.19
39223;BME280;24936;46.328;11.026;2023-04-06T01:47:18;94385.50;;;-1.35;72.08
39223;BME280;24936;46.328;11.026;2023-04-06T01:49:44;94390.38;;;-1.29;72.26
39223;BME280;24936;46.328;11.026;2023-04-06T01:52:09;94383.06;;;-1.38;72.24
39223;BME280;24936;46.328;11.026;2023-04-06T01:54:35;94386.94;;;-1.67;73.63
39223;BME280;24936;46.328;11.026;2023-04-06T01:57:00;94381.91;;;-1.90;74.40
39223;BME280;24936;46.328;11.026;2023-04-06T01:59:25;94381.59;;;-1.83;74.91
39223;BME280;24936;46.328;11.026;2023-04-06T02:01:51;94384.16;;;-1.44;73.02
39223;BME280;24936;46.328;11.026;2023-04-06T02:04:16;94383.41;;;-1.46;72.99
39223;BME280;24936;46.328;11.026;2023-04-06T02:06:42;94383.28;;;-1.82;74.00
39223;BME280;24936;46.328;11.026;2023-04-06T02:09:07;94383.50;;;-2.08;75.00
39223;BME280;24936;46.328;11.026;2023-04-06T02:11:33;94389.13;;;-2.19;75.81
39223;BME280;24936;46.328;11.026;2023-04-06T02:13:58;94393.00;;;-2.29;76.34
39223;BME280;24936;46.328;11.026;2023-04-06T02:16:25;94397.13;;;-2.25;76.03
39223;BME280;24936;46.328;11.026;2023-04-06T02:18:51;94393.91;;;-2.09;75.49
39223;BME280;24936;46.328;11.026;2023-04-06T02:21:16;94396.59;;;-2.12;75.37
39223;BME280;24936;46.328;11.026;2023-04-06T02:23:45;94395.00;;;-2.15;76.10
39223;BME280;24936;46.328;11.026;2023-04-06T02:26:11;94393.44;;;-1.98;75.02
39223;BME280;24936;46.328;11.026;2023-04-06T02:28:36;94388.44;;;-1.82;74.35
39223;BME280;24936;46.328;11.026;2023-04-06T02:31:01;94397.00;;;-1.61;73.17
39223;BME280;24936;46.328;11.026;2023-04-06T02:33:27;94399.13;;;-1.71;73.46
39223;BME280;24936;46.328;11.026;2023-04-06T02:35:52;94392.84;;;-1.65;73.60
39223;BME280;24936;46.328;11.026;2023-04-06T02:38:17;94395.97;;;-1.78;73.93
39223;BME280;24936;46.328;11.026;2023-04-06T02:40:43;94395.53;;;-1.88;74.16
39223;BME280;24936;46.328;11.026;2023-04-06T02:43:08;94387.97;;;-1.91;74.25
39223;BME280;24936;46.328;11.026;2023-04-06T02:45:34;94401.72;;;-1.71;73.63
39223;BME280;24936;46.328;11.026;2023-04-06T02:47:59;94410.53;;;-1.75;73.86
39223;BME280;24936;46.328;11.026;2023-04-06T02:50:50;94402.06;;;-1.60;72.90
39223;BME280;24936;46.328;11.026;2023-04-06T02:53:16;94411.78;;;-1.65;72.68
39223;BME280;24936;46.328;11.026;2023-04-06T02:55:41;94403.00;;;-2.01;74.39
39223;BME280;24936;46.328;11.026;2023-04-06T02:58:07;94412.16;;;-2.14;74.80
39223;BME280;24936;46.328;11.026;2023-04-06T03:00:32;94411.31;;;-2.15;75.41
39223;BME280;24936;46.328;11.026;2023-04-06T03:02:57;94407.72;;;-2.31;76.09
39223;BME280;24936;46.328;11.026;2023-04-06T03:05:23;94409.25;;;-2.48;76.45
39223;BME280;24936;46.328;11.026;2023-04-06T03:07:48;94416.41;;;-2.77;77.04
39223;BME280;24936;46.328;11.026;2023-04-06T03:10:14;94408.97;;;-3.07;78.13
39223;BME280;24936;46.328;11.026;2023-04-06T03:12:39;94417.81;;;-2.69;78.06
39223;BME280;24936;46.328;11.026;2023-04-06T03:15:07;94415.50;;;-2.75;77.59
39223;BME280;24936;46.328;11.026;2023-04-06T03:17:32;94414.66;;;-2.98;78.63
39223;BME280;24936;46.328;11.026;2023-04-06T03:19:58;94410.13;;;-3.14;79.40
39223;BME280;24936;46.328;11.026;2023-04-06T03:22:23;94422.03;;;-3.11;80.05
39223;BME280;24936;46.328;11.026;2023-04-06T03:24:48;94413.22;;;-2.83;79.36
39223;BME280;24936;46.328;11.026;2023-04-06T03:27:14;94418.78;;;-2.72;78.53
39223;BME280;24936;46.328;11.026;2023-04-06T03:29:40;94423.13;;;-2.72;78.01
39223;BME280;24936;46.328;11.026;2023-04-06T03:32:05;94419.56;;;-2.70;78.23
39223;BME280;24936;46.328;11.026;2023-04-06T03:34:30;94417.19;;;-2.74;77.93
39223;BME280;24936;46.328;11.026;2023-04-06T03:36:56;94415.94;;;-2.43;77.11
39223;BME280;24936;46.328;11.026;2023-04-06T03:39:21;94419.19;;;-2.18;75.76
39223;BME280;24936;46.328;11.026;2023-04-06T03:41:47;94418.94;;;-2.32;75.67
39223;BME280;24936;46.328;11.026;2023-04-06T03:44:12;94415.31;;;-2.71;77.50
39223;BME280;24936;46.328;11.026;2023-04-06T03:46:37;94422.88;;;-2.66;77.51
39223;BME280;24936;46.328;11.026;2023-04-06T03:49:03;94418.66;;;-2.47;76.55
39223;BME280;24936;46.328;11.026;2023-04-06T03:51:28;94424.50;;;-2.86;78.21
39223;BME280;24936;46.328;11.026;2023-04-06T03:53:54;94426.09;;;-2.61;77.35
39223;BME280;24936;46.328;11.026;2023-04-06T03:56:19;94421.69;;;-2.80;77.76
39223;BME280;24936;46.328;11.026;2023-04-06T03:58:45;94430.53;;;-3.09;78.96
39223;BME280;24936;46.328;11.026;2023-04-06T04:01:14;94423.91;;;-3.15;79.32
39223;BME280;24936;46.328;11.026;2023-04-06T04:03:40;94424.44;;;-3.07;79.90
39223;BME280;24936;46.328;11.026;2023-04-06T04:06:05;94431.94;;;-3.00;79.80
39223;BME280;24936;46.328;11.026;2023-04-06T04:08:30;94435.56;;;-3.06;79.39
39223;BME280;24936;46.328;11.026;2023-04-06T04:10:56;94432.22;;;-3.08;79.37
39223;BME280;24936;46.328;11.026;2023-04-06T04:13:21;94432.94;;;-2.82;78.84
39223;BME280;24936;46.328;11.026;2023-04-06T04:15:47;94431.59;;;-2.70;78.44
39223;BME280;24936;46.328;11.026;2023-04-06T04:18:13;94435.88;;;-2.69;78.41
39223;BME280;24936;46.328;11.026;2023-04-06T04:20:38;94436.22;;;-2.56;77.60
39223;BME280;24936;46.328;11.026;2023-04-06T04:23:03;94439.88;;;-2.62;77.24
39223;BME280;24936;46.328;11.026;2023-04-06T04:25:29;94436.84;;;-2.94;78.46
39223;BME280;24936;46.328;11.026;2023-04-06T04:27:54;94434.06;;;-3.12;79.09
39223;BME280;24936;46.328;11.026;2023-04-06T04:30:20;94436.78;;;-2.93;79.10
39223;BME280;24936;46.328;11.026;2023-04-06T04:32:46;94439.91;;;-2.84;78.41
39223;BME280;24936;46.328;11.026;2023-04-06T04:35:12;94439.91;;;-2.84;78.17
39223;BME280;24936;46.328;11.026;2023-04-06T04:37:38;94442.47;;;-3.07;79.08
39223;BME280;24936;46.328;11.026;2023-04-06T04:40:04;94444.59;;;-3.18;79.69
39223;BME280;24936;46.328;11.026;2023-04-06T04:42:30;94447.31;;;-2.99;79.40
39223;BME280;24936;46.328;11.026;2023-04-06T04:44:56;94444.34;;;-2.88;79.07
39223;BME280;24936;46.328;11.026;2023-04-06T04:47:21;94445.34;;;-2.92;79.02
39223;BME280;24936;46.328;11.026;2023-04-06T04:49:46;94439.13;;;-2.86;78.60
39223;BME280;24936;46.328;11.026;2023-04-06T04:52:12;94445.56;;;-2.76;78.22
39223;BME280;24936;46.328;11.026;2023-04-06T04:54:37;94440.66;;;-3.04;78.88
39223;BME280;24936;46.328;11.026;2023-04-06T04:57:03;94435.38;;;-3.24;79.86
39223;BME280;24936;46.328;11.026;2023-04-06T04:59:29;94432.56;;;-3.17;79.65
39223;BME280;24936;46.328;11.026;2023-04-06T05:01:54;94435.31;;;-3.22;79.68
39223;BME280;24936;46.328;11.026;2023-04-06T05:04:20;94432.84;;;-3.25;79.71
39223;BME280;24936;46.328;11.026;2023-04-06T05:06:46;94444.94;;;-3.03;78.93
39223;BME280;24936;46.328;11.026;2023-04-06T05:09:11;94438.75;;;-2.77;77.60
39223;BME280;24936;46.328;11.026;2023-04-06T05:11:37;94443.38;;;-2.85;78.07
39223;BME280;24936;46.328;11.026;2023-04-06T05:14:02;94445.56;;;-2.98;78.81
39223;BME280;24936;46.328;11.026;2023-04-06T05:16:27;94438.00;;;-2.79;78.47
39223;BME280;24936;46.328;11.026;2023-04-06T05:18:53;94447.25;;;-2.97;78.73
39223;BME280;24936;46.328;11.026;2023-04-06T05:21:18;94440.19;;;-2.92;78.60
39223;BME280;24936;46.328;11.026;2023-04-06T05:23:44;94440.69;;;-2.82;78.11
39223;BME280;24936;46.328;11.026;2023-04-06T05:26:09;94452.09;;;-2.67;77.81
39223;BME280;24936;46.328;11.026;2023-04-06T05:28:35;94441.31;;;-2.55;77.13
39223;BME280;24936;46.328;11.026;2023-04-06T05:31:01;94446.88;;;-2.43;76.42
39223;BME280;24936;46.328;11.026;2023-04-06T05:33:26;94451.28;;;-2.68;77.45
39223;BME280;24936;46.328;11.026;2023-04-06T05:35:52;94443.16;;;-2.79;78.69
39223;BME280;24936;46.328;11.026;2023-04-06T05:38:17;94447.31;;;-2.77;79.06
39223;BME280;24936;46.328;11.026;2023-04-06T05:40:43;94448.88;;;-2.72;79.12
39223;BME280;24936;46.328;11.026;2023-04-06T05:43:08;94451.81;;;-2.59;79.03
39223;BME280;24936;46.328;11.026;2023-04-06T05:45:34;94454.38;;;-2.59;79.56
39223;BME280;24936;46.328;11.026;2023-04-06T05:48:01;94456.00;;;-2.57;78.61
39223;BME280;24936;46.328;11.026;2023-04-06T05:50:27;94459.91;;;-2.47;78.57
39223;BME280;24936;46.328;11.026;2023-04-06T05:52:52;94451.00;;;-2.39;78.61
39223;BME280;24936;46.328;11.026;2023-04-06T05:55:18;94452.28;;;-2.29;78.21
39223;BME280;24936;46.328;11.026;2023-04-06T05:57:43;94450.00;;;-2.15;76.78
39223;BME280;24936;46.328;11.026;2023-04-06T06:00:09;94461.34;;;-1.98;75.85
39223;BME280;24936;46.328;11.026;2023-04-06T06:02:35;94468.53;;;-1.84;75.01
39223;BME280;24936;46.328;11.026;2023-04-06T06:05:01;94463.03;;;-1.76;74.21
39223;BME280;24936;46.328;11.026;2023-04-06T06:07:27;94470.50;;;-1.70;74.66
39223;BME280;24936;46.328;11.026;2023-04-06T06:09:52;94477.09;;;-1.63;74.45
39223;BME280;24936;46.328;11.026;2023-04-06T06:12:17;94469.00;;;-1.55;74.83
39223;BME280;24936;46.328;11.026;2023-04-06T06:14:43;94470.56;;;-1.32;73.07
39223;BME280;24936;46.328;11.026;2023-04-06T06:17:08;94474.50;;;-1.04;71.63
39223;BME280;24936;46.328;11.026;2023-04-06T06:19:34;94468.16;;;-0.97;70.92
39223;BME280;24936;46.328;11.026;2023-04-06T06:21:59;94474.69;;;-0.89;70.96
39223;BME280;24936;46.328;11.026;2023-04-06T06:24:27;94468.00;;;-0.94;70.69
39223;BME280;24936;46.328;11.026;2023-04-06T06:26:53;94467.38;;;-0.99;70.29
39223;BME280;24936;46.328;11.026;2023-04-06T06:29:18;94469.25;;;-0.83;70.21
39223;BME280;24936;46.328;11.026;2023-04-06T06:31:43;94460.25;;;-0.74;68.97
39223;BME280;24936;46.328;11.026;2023-04-06T06:34:09;94458.81;;;-0.63;68.39
39223;BME280;24936;46.328;11.026;2023-04-06T06:36:35;94460.47;;;-0.62;68.33
39223;BME280;24936;46.328;11.026;2023-04-06T06:39:01;94454.34;;;-0.59;68.64
39223;BME280;24936;46.328;11.026;2023-04-06T06:41:28;94459.44;;;-0.57;68.30
39223;BME280;24936;46.328;11.026;2023-04-06T06:43:53;94465.16;;;-0.51;68.60
39223;BME280;24936;46.328;11.026;2023-04-06T06:46:20;94453.25;;;-0.36;68.10
39223;BME280;24936;46.328;11.026;2023-04-06T06:48:46;94455.25;;;-0.23;68.09
39223;BME280;24936;46.328;11.026;2023-04-06T06:51:12;94453.09;;;-0.15;67.40
39223;BME280;24936;46.328;11.026;2023-04-06T06:53:38;94449.47;;;-0.11;68.02
39223;BME280;24936;46.328;11.026;2023-04-06T06:56:03;94447.09;;;-0.16;68.55
39223;BME280;24936;46.328;11.026;2023-04-06T06:58:29;94450.81;;;-0.04;68.10
39223;BME280;24936;46.328;11.026;2023-04-06T07:00:58;94455.22;;;0.12;67.09
39223;BME280;24936;46.328;11.026;2023-04-06T07:03:24;94448.13;;;0.33;66.94
39223;BME280;24936;46.328;11.026;2023-04-06T07:05:50;94441.50;;;0.45;66.51
39223;BME280;24936;46.328;11.026;2023-04-06T07:08:23;94444.34;;;0.56;65.46
39223;BME280;24936;46.328;11.026;2023-04-06T07:10:51;94438.78;;;0.64;65.27
39223;BME280;24936;46.328;11.026;2023-04-06T07:13:18;94443.88;;;0.66;64.92
39223;BME280;24936;46.328;11.026;2023-04-06T07:15:47;94438.69;;;0.66;64.74
39223;BME280;24936;46.328;11.026;2023-04-06T07:18:12;94439.72;;;0.79;64.94
39223;BME280;24936;46.328;11.026;2023-04-06T07:20:38;94434.81;;;0.90;64.09
39223;BME280;24936;46.328;11.026;2023-04-06T07:23:03;94430.81;;;1.01;64.73
39223;BME280;24936;46.328;11.026;2023-04-06T07:25:29;94428.88;;;1.20;64.43
39223;BME280;24936;46.328;11.026;2023-04-06T07:27:55;94435.03;;;1.34;65.08
39223;BME280;24936;46.328;11.026;2023-04-06T07:30:20;94436.66;;;1.36;64.71
39223;BME280;24936;46.328;11.026;2023-04-06T07:32:47;94429.44;;;1.42;65.63
39223;BME280;24936;46.328;11.026;2023-04-06T07:35:13;94429.00;;;1.49;65.77
39223;BME280;24936;46.328;11.026;2023-04-06T07:37:38;94428.69;;;1.56;66.21
39223;BME280;24936;46.328;11.026;2023-04-06T07:40:04;94425.28;;;1.70;65.77
39223;BME280;24936;46.328;11.026;2023-04-06T07:42:29;94423.00;;;1.79;66.92
39223;BME280;24936;46.328;11.026;2023-04-06T07:44:55;94422.13;;;1.95;65.65
39223;BME280;24936;46.328;11.026;2023-04-06T07:47:20;94414.06;;;1.99;64.61
39223;BME280;24936;46.328;11.026;2023-04-06T07:49:46;94418.06;;;2.05;64.87
39223;BME280;24936;46.328;11.026;2023-04-06T07:52:11;94420.16;;;2.14;64.24
39223;BME280;24936;46.328;11.026;2023-04-06T07:54:36;94420.19;;;2.29;63.55
39223;BME280;24936;46.328;11.026;2023-04-06T07:57:02;94416.66;;;2.59;62.36
39223;BME280;24936;46.328;11.026;2023-04-06T07:59:29;94419.25;;;3.44;58.99
39223;BME280;24936;46.328;11.026;2023-04-06T08:01:55;94414.31;;;4.07;57.17
39223;BME280;24936;46.328;11.026;2023-04-06T08:04:20;94417.78;;;4.47;55.83
39223;BME280;24936;46.328;11.026;2023-04-06T08:06:45;94412.38;;;4.37;55.19
39223;BME280;24936;46.328;11.026;2023-04-06T08:09:11;94409.13;;;4.72;54.42
39223;BME280;24936;46.328;11.026;2023-04-06T08:11:36;94400.34;;;5.36;53.93
39223;BME280;24936;46.328;11.026;2023-04-06T08:14:01;94409.75;;;4.88;52.85
39223;BME280;24936;46.328;11.026;2023-04-06T08:16:27;94406.06;;;5.04;54.41
39223;BME280;24936;46.328;11.026;2023-04-06T08:18:52;94404.94;;;5.32;52.87
39223;BME280;24936;46.328;11.026;2023-04-06T08:21:18;94392.56;;;5.72;50.38
39223;BME280;24936;46.328;11.026;2023-04-06T08:23:43;94392.66;;;5.94;49.56
39223;BME280;24936;46.328;11.026;2023-04-06T08:26:09;94391.78;;;6.07;49.83
39223;BME280;24936;46.328;11.026;2023-04-06T08:28:34;94400.25;;;6.22;47.89
39223;BME280;24936;46.328;11.026;2023-04-06T08:31:04;94392.25;;;6.48;47.90
39223;BME280;24936;46.328;11.026;2023-04-06T08:33:30;94389.28;;;6.75;46.77
39223;BME280;24936;46.328;11.026;2023-04-06T08:35:56;94380.84;;;6.94;45.60
39223;BME280;24936;46.328;11.026;2023-04-06T08:38:21;94379.66;;;7.65;44.25
39223;BME280;24936;46.328;11.026;2023-04-06T08:40:47;94384.47;;;7.81;41.88
39223;BME280;24936;46.328;11.026;2023-04-06T08:43:16;94377.97;;;7.96;42.05
39223;BME280;24936;46.328;11.026;2023-04-06T08:45:42;94376.91;;;8.63;40.44
39223;BME280;24936;46.328;11.026;2023-04-06T08:48:09;94372.13;;;9.69;39.38
39223;BME280;24936;46.328;11.026;2023-04-06T08:50:35;94364.66;;;10.33;37.16
39223;BME280;24936;46.328;11.026;2023-04-06T08:53:00;94368.56;;;10.39;37.15
39223;BME280;24936;46.328;11.026;2023-04-06T08:55:26;94362.28;;;11.35;35.22
39223;BME280;24936;46.328;11.026;2023-04-06T08:57:52;94366.59;;;11.54;36.29
39223;BME280;24936;46.328;11.026;2023-04-06T09:00:20;94363.69;;;11.93;33.29
39223;BME280;24936;46.328;11.026;2023-04-06T09:02:47;94361.13;;;10.82;33.31
39223;BME280;24936;46.328;11.026;2023-04-06T09:05:14;94353.59;;;11.71;34.12
39223;BME280;24936;46.328;11.026;2023-04-06T09:07:40;94350.44;;;12.21;33.67
39223;BME280;24936;46.328;11.026;2023-04-06T09:10:06;94348.28;;;12.88;30.08
39223;BME280;24936;46.328;11.026;2023-04-06T09:12:32;94332.44;;;13.90;30.97
39223;BME280;24936;46.328;11.026;2023-04-06T09:14:59;94332.63;;;13.97;28.80
39223;BME280;24936;46.328;11.026;2023-04-06T09:17:26;94338.59;;;14.15;26.86
39223;BME280;24936;46.328;11.026;2023-04-06T09:19:52;94329.47;;;14.51;28.53
39223;BME280;24936;46.328;11.026;2023-04-06T09:22:18;94331.59;;;13.81;27.72
39223;BME280;24936;46.328;11.026;2023-04-06T09:24:46;94329.44;;;13.68;26.99
39223;BME280;24936;46.328;11.026;2023-04-06T09:27:12;94326.69;;;15.17;24.90
39223;BME280;24936;46.328;11.026;2023-04-06T09:29:38;94322.66;;;15.38;24.94
39223;BME280;24936;46.328;11.026;2023-04-06T09:32:05;94318.06;;;14.75;25.80
39223;BME280;24936;46.328;11.026;2023-04-06T09:34:31;94315.28;;;14.11;27.07
39223;BME280;24936;46.328;11.026;2023-04-06T09:36:57;94307.25;;;14.85;27.02
39223;BME280;24936;46.328;11.026;2023-04-06T09:39:23;94308.41;;;15.39;27.99
39223;BME280;24936;46.328;11.026;2023-04-06T09:41:53;94306.88;;;15.76;25.01
39223;BME280;24936;46.328;11.026;2023-04-06T09:44:19;94301.31;;;15.31;26.40
39223;BME280;24936;46.328;11.026;2023-04-06T09:46:47;94293.50;;;15.29;25.81
39223;BME280;24936;46.328;11.026;2023-04-06T09:49:13;94294.56;;;15.12;28.35
39223;BME280;24936;46.328;11.026;2023-04-06T09:51:53;94301.47;;;15.29;27.18
39223;BME280;24936;46.328;11.026;2023-04-06T09:54:21;94284.47;;;16.78;22.89
39223;BME280;24936;46.328;11.026;2023-04-06T09:56:52;94285.75;;;15.20;23.60
39223;BME280;24936;46.328;11.026;2023-04-06T10:02:05;94275.31;;;15.81;25.09
39223;BME280;24936;46.328;11.026;2023-04-06T10:04:37;94270.38;;;15.47;23.63
39223;BME280;24936;46.328;11.026;2023-04-06T10:07:07;94275.16;;;15.20;22.86
39223;BME280;24936;46.328;11.026;2023-04-06T10:09:35;94265.03;;;16.25;20.82
39223;BME280;24936;46.328;11.026;2023-04-06T10:12:03;94265.19;;;16.46;22.85
39223;BME280;24936;46.328;11.026;2023-04-06T10:14:31;94262.22;;;15.56;22.53
39223;BME280;24936;46.328;11.026;2023-04-06T10:16:57;94268.06;;;16.60;22.80
39223;BME280;24936;46.328;11.026;2023-04-06T10:19:41;94263.88;;;16.27;23.15
39223;BME280;24936;46.328;11.026;2023-04-06T10:22:12;94264.19;;;16.47;25.15
39223;BME280;24936;46.328;11.026;2023-04-06T10:24:41;94265.03;;;17.38;22.58
39223;BME280;24936;46.328;11.026;2023-04-06T10:27:07;94255.28;;;16.40;22.40
39223;BME280;24936;46.328;11.026;2023-04-06T10:29:45;94246.81;;;16.60;22.88
39223;BME280;24936;46.328;11.026;2023-04-06T10:32:12;94249.56;;;17.26;22.48
39223;BME280;24936;46.328;11.026;2023-04-06T10:34:37;94245.34;;;16.19;21.87
39223;BME280;24936;46.328;11.026;2023-04-06T10:37:16;94247.47;;;16.24;21.55
39223;BME280;24936;46.328;11.026;2023-04-06T10:39:53;94233.47;;;17.71;19.51
39223;BME280;24936;46.328;11.026;2023-04-06T10:42:36;94234.03;;;16.40;22.74
39223;BME280;24936;46.328;11.026;2023-04-06T10:45:06;94240.88;;;15.73;21.97
39223;BME280;24936;46.328;11.026;2023-04-06T10:47:39;94231.75;;;15.75;23.28
39223;BME280;24936;46.328;11.026;2023-04-06T10:50:05;94234.03;;;15.55;22.59
39223;BME280;24936;46.328;11.026;2023-04-06T10:52:31;94238.44;;;16.33;23.17
39223;BME280;24936;46.328;11.026;2023-04-06T10:54:56;94225.06;;;17.53;21.02
39223;BME280;24936;46.328;11.026;2023-04-06T10:57:28;94225.72;;;16.28;21.51
39223;BME280;24936;46.328;11.026;2023-04-06T10:59:54;94223.44;;;17.95;18.19
39223;BME280;24936;46.328;11.026;2023-04-06T11:02:20;94214.38;;;16.94;20.97
39223;BME280;24936;46.328;11.026;2023-04-06T11:04:56;94205.19;;;18.14;19.47
39223;BME280;24936;46.328;11.026;2023-04-06T11:07:23;94205.16;;;16.07;21.30
39223;BME280;24936;46.328;11.026;2023-04-06T11:09:50;94200.78;;;15.68;20.59
39223;BME280;24936;46.328;11.026;2023-04-06T11:12:26;94192.00;;;16.29;22.97
39223;BME280;24936;46.328;11.026;2023-04-06T11:14:59;94193.25;;;16.93;19.83
39223;BME280;24936;46.328;11.026;2023-04-06T11:17:35;94178.28;;;17.80;17.86
39223;BME280;24936;46.328;11.026;2023-04-06T11:20:02;94174.72;;;17.73;21.20
39223;BME280;24936;46.328;11.026;2023-04-06T11:22:29;94166.78;;;18.30;18.90
39223;BME280;24936;46.328;11.026;2023-04-06T11:25:07;94167.75;;;17.50;20.92
39223;BME280;24936;46.328;11.026;2023-04-06T11:27:34;94163.06;;;17.31;20.94
39223;BME280;24936;46.328;11.026;2023-04-06T11:30:01;94158.47;;;16.88;18.75
39223;BME280;24936;46.328;11.026;2023-04-06T11:32:27;94153.78;;;17.05;19.59
39223;BME280;24936;46.328;11.026;2023-04-06T11:34:52;94154.38;;;17.22;19.54
39223;BME280;24936;46.328;11.026;2023-04-06T11:37:18;94144.00;;;17.49;18.28
39223;BME280;24936;46.328;11.026;2023-04-06T11:39:47;94147.31;;;16.62;20.47
39223;BME280;24936;46.328;11.026;2023-04-06T11:42:21;94136.13;;;16.67;21.34
39223;BME280;24936;46.328;11.026;2023-04-06T11:44:50;94145.59;;;17.21;20.79
39223;BME280;24936;46.328;11.026;2023-04-06T11:47:16;94140.19;;;17.80;17.78
39223;BME280;24936;46.328;11.026;2023-04-06T11:49:42;94123.63;;;18.83;18.53
39223;BME280;24936;46.328;11.026;2023-04-06T11:52:19;94125.94;;;17.44;18.39
39223;BME280;24936;46.328;11.026;2023-04-06T11:54:46;94127.09;;;18.35;19.34
39223;BME280;24936;46.328;11.026;2023-04-06T11:57:12;94122.41;;;17.58;18.93
39223;BME280;24936;46.328;11.026;2023-04-06T11:59:37;94122.59;;;17.57;20.43
39223;BME280;24936;46.328;11.026;2023-04-06T12:02:04;94116.03;;;17.31;16.98
39223;BME280;24936;46.328;11.026;2023-04-06T12:04:30;94117.16;;;17.22;19.15
39223;BME280;24936;46.328;11.026;2023-04-06T12:06:55;94112.41;;;17.39;18.42
39223;BME280;24936;46.328;11.026;2023-04-06T12:09:21;94098.81;;;18.83;20.18
39223;BME280;24936;46.328;11.026;2023-04-06T12:11:46;94099.13;;;17.89;17.38
39223;BME280;24936;46.328;11.026;2023-04-06T12:14:12;94098.75;;;19.18;16.79
39223;BME280;24936;46.328;11.026;2023-04-06T12:16:38;94098.81;;;19.78;18.19
39223;BME280;24936;46.328;11.026;2023-04-06T12:19:03;94092.34;;;18.57;18.05
39223;BME280;24936;46.328;11.026;2023-04-06T12:21:33;94093.75;;;17.32;18.28
39223;BME280;24936;46.328;11.026;2023-04-06T12:23:59;94085.44;;;16.99;19.61
39223;BME280;24936;46.328;11.026;2023-04-06T12:26:25;94082.69;;;17.35;20.08
39223;BME280;24936;46.328;11.026;2023-04-06T12:28:51;94083.47;;;17.79;19.20
39223;BME280;24936;46.328;11.026;2023-04-06T12:31:18;94082.09;;;18.12;21.12
39223;BME280;24936;46.328;11.026;2023-04-06T12:33:46;94072.84;;;17.79;17.93
39223;BME280;24936;46.328;11.026;2023-04-06T12:36:16;94067.66;;;17.71;19.56
39223;BME280;24936;46.328;11.026;2023-04-06T12:38:47;94070.56;;;16.67;19.70
39223;BME280;24936;46.328;11.026;2023-04-06T12:41:13;94075.72;;;17.34;23.44
39223;BME280;24936;46.328;11.026;2023-04-06T12:43:39;94068.03;;;16.96;19.38
39223;BME280;24936;46.328;11.026;2023-04-06T12:46:08;94055.63;;;18.45;18.81
39223;BME280;24936;46.328;11.026;2023-04-06T12:48:34;94050.09;;;18.95;18.84
39223;BME280;24936;46.328;11.026;2023-04-06T12:51:04;94054.72;;;17.96;19.64